Time;durP1;ratioP1;P1;durP2;ratioP2;P2;SDS_P1;SDS_P2;PMS_P1;PMS_P2;Temp;Humidity;BMP_temperature;BMP_pressure;BME280_temperature;BME280_humidity;BME280_pressure;Samples;Min_cycle;Max_cycle;Signal;HPM_P1;HPM_P2
2022/04/01 00:01:51;;;;;;;2.63;0.88;;;19.20;48.70;;;;;;4524162;31;20152;-65
2022/04/01 00:04:17;;;;;;;2.25;0.65;;;19.20;48.70;;;;;;4509405;31;20083;-65
2022/04/01 00:06:43;;;;;;;2.00;0.63;;;19.10;48.70;;;;;;4524030;31;20087;-65
2022/04/01 00:09:09;;;;;;;1.98;0.70;;;19.10;48.70;;;;;;4524255;31;20069;-65
2022/04/01 00:11:35;;;;;;;1.08;0.52;;;19.10;48.70;;;;;;4524019;31;20148;-65
2022/04/01 00:14:01;;;;;;;1.88;0.75;;;19.10;48.70;;;;;;4524203;31;20152;-65
2022/04/01 00:16:26;;;;;;;4.97;0.75;;;19.10;48.70;;;;;;4523855;31;20504;-65
2022/04/01 00:18:52;;;;;;;2.28;0.80;;;19.10;48.70;;;;;;4523363;31;20169;-65
2022/04/01 00:21:18;;;;;;;1.58;0.43;;;19.00;48.70;;;;;;4523796;31;20127;-65
2022/04/01 00:23:44;;;;;;;2.88;0.80;;;19.00;48.70;;;;;;4509265;31;20091;-65
2022/04/01 00:26:10;;;;;;;1.98;0.68;;;19.00;48.70;;;;;;4509536;31;20187;-65
2022/04/01 00:28:36;;;;;;;2.33;0.70;;;19.00;48.80;;;;;;4524061;31;20225;-65
2022/04/01 00:31:03;;;;;;;1.77;0.73;;;19.00;48.80;;;;;;4523835;31;20210;-65
2022/04/01 00:33:28;;;;;;;1.17;0.60;;;19.00;48.70;;;;;;4523460;31;20060;-65
2022/04/01 00:35:55;;;;;;;3.60;0.70;;;18.90;48.70;;;;;;4509135;31;20390;-65
2022/04/01 00:38:21;;;;;;;1.58;0.52;;;18.90;48.90;;;;;;4523385;31;20143;-65
2022/04/01 00:40:48;;;;;;;3.03;0.70;;;18.90;48.80;;;;;;4524017;31;20072;-65
2022/04/01 00:43:14;;;;;;;1.92;0.68;;;18.90;48.80;;;;;;4523354;31;20161;-65
2022/04/01 00:45:40;;;;;;;1.27;0.50;;;18.90;48.80;;;;;;4523378;31;20084;-65
2022/04/01 00:48:07;;;;;;;1.83;0.50;;;18.80;48.70;;;;;;4523371;31;20489;-65
2022/04/01 00:50:33;;;;;;;2.28;0.60;;;18.80;48.80;;;;;;4523284;31;20533;-65
2022/04/01 00:52:59;;;;;;;1.27;0.50;;;18.80;48.70;;;;;;4523648;31;20383;-65
2022/04/01 00:55:28;;;;;;;2.72;0.52;;;18.80;48.80;;;;;;4523767;31;20084;-65
2022/04/01 00:57:53;;;;;;;2.70;0.60;;;18.80;48.80;;;;;;4523475;31;20483;-65
2022/04/01 01:00:19;;;;;;;0.93;0.50;;;18.80;48.80;;;;;;4523208;31;20069;-65
2022/04/01 01:02:46;;;;;;;1.15;0.50;;;18.80;48.80;;;;;;4523779;31;20087;-65
2022/04/01 01:05:12;;;;;;;1.00;0.40;;;18.70;48.80;;;;;;4523176;31;20234;-65
2022/04/01 01:07:42;;;;;;;2.10;0.43;;;18.70;48.80;;;;;;4523618;31;20077;-65
2022/04/01 01:10:10;;;;;;;1.20;0.52;;;18.70;48.80;;;;;;4525806;31;20083;-65
2022/04/01 01:12:41;;;;;;;0.93;0.40;;;18.70;48.90;;;;;;4526414;31;20130;-65
2022/04/01 01:15:13;;;;;;;1.52;0.60;;;18.70;48.80;;;;;;4526945;31;20088;-65
2022/04/01 01:17:41;;;;;;;0.80;0.50;;;18.70;48.80;;;;;;4526558;31;20107;-65
2022/04/01 01:20:17;;;;;;;1.67;0.38;;;18.70;48.90;;;;;;4526584;31;20084;-65
2022/04/01 01:22:48;;;;;;;1.65;0.43;;;18.60;48.90;;;;;;4526594;31;20079;-65
2022/04/01 01:25:14;;;;;;;1.60;0.50;;;18.60;48.90;;;;;;4526608;31;20106;-65
2022/04/01 01:27:41;;;;;;;1.60;0.43;;;18.60;48.90;;;;;;4526510;31;20079;-65
2022/04/01 01:30:08;;;;;;;1.83;0.60;;;18.60;48.90;;;;;;4526439;31;20626;-65
2022/04/01 01:32:35;;;;;;;1.27;0.47;;;18.60;48.90;;;;;;4525991;31;20091;-65
2022/04/01 01:35:06;;;;;;;2.15;0.30;;;18.60;48.90;;;;;;4526636;31;20494;-65
2022/04/01 01:37:31;;;;;;;2.35;0.60;;;18.60;49.00;;;;;;4526438;31;20135;-65
2022/04/01 01:39:58;;;;;;;1.23;0.60;;;18.50;48.90;;;;;;4529029;31;20064;-65
2022/04/01 01:42:24;;;;;;;2.15;0.50;;;18.50;48.90;;;;;;4541983;31;20092;-65
2022/04/01 01:44:50;;;;;;;1.00;0.43;;;18.50;48.90;;;;;;4542324;31;20072;-65
2022/04/01 01:47:16;;;;;;;2.60;0.50;;;18.50;49.00;;;;;;4542272;31;20083;-65
2022/04/01 01:54:42;;;;;;;1.10;0.40;;;18.50;49.90;;;;;;4542256;31;20084;-65
2022/04/01 01:55:12;;;;;;;1.48;0.60;;;18.50;49.00;;;;;;4542269;31;20080;-65
2022/04/01 01:57:38;;;;;;;1.38;0.60;;;18.40;49.00;;;;;;4542325;31;20056;-65
2022/04/01 02:00:11;;;;;;;0.85;0.40;;;18.40;48.90;;;;;;4542346;31;20405;-65
2022/04/01 02:02:38;;;;;;;1.60;0.45;;;18.40;49.00;;;;;;4528444;31;20084;-65
2022/04/01 02:05:07;;;;;;;0.65;0.30;;;18.40;49.00;;;;;;4527974;31;20084;-65
2022/04/01 02:07:33;;;;;;;1.52;0.40;;;18.40;49.00;;;;;;4541949;31;20095;-65
2022/04/01 02:09:59;;;;;;;1.27;0.38;;;18.40;49.00;;;;;;4527302;31;20092;-65
2022/04/01 02:12:26;;;;;;;1.23;0.40;;;18.40;49.00;;;;;;4541599;31;20536;-65
2022/04/01 02:14:52;;;;;;;2.17;0.60;;;18.40;49.00;;;;;;4541841;31;20095;-65
2022/04/01 02:17:18;;;;;;;1.30;0.68;;;18.30;49.00;;;;;;4541704;31;20157;-65
2022/04/01 02:19:44;;;;;;;1.05;0.38;;;18.30;49.00;;;;;;4541633;31;20084;-65
2022/04/01 02:22:10;;;;;;;0.98;0.50;;;18.30;49.10;;;;;;4541000;31;20092;-65
2022/04/01 02:24:36;;;;;;;2.05;0.52;;;18.30;49.00;;;;;;4541707;31;20090;-65
2022/04/01 02:27:02;;;;;;;0.70;0.40;;;18.30;49.10;;;;;;4533885;31;20068;-65
2022/04/01 02:29:29;;;;;;;0.95;0.45;;;18.30;49.10;;;;;;4529631;31;20076;-65
2022/04/01 02:31:55;;;;;;;2.40;0.50;;;18.30;49.10;;;;;;4510519;31;20072;-65
2022/04/01 02:34:26;;;;;;;2.03;0.50;;;18.20;49.00;;;;;;4524511;31;20161;-65
2022/04/01 02:36:54;;;;;;;0.82;0.40;;;18.20;49.00;;;;;;4524352;31;20068;-65
2022/04/01 02:39:20;;;;;;;1.73;0.60;;;18.20;49.00;;;;;;4510035;31;20068;-65
2022/04/01 02:41:47;;;;;;;1.92;0.40;;;18.20;49.00;;;;;;4524545;31;20084;-65
2022/04/01 02:44:12;;;;;;;0.75;0.40;;;18.20;49.10;;;;;;4509987;31;20176;-65
2022/04/01 02:46:41;;;;;;;1.63;0.50;;;18.20;49.00;;;;;;4524418;31;20084;-65
2022/04/01 02:49:08;;;;;;;1.10;0.60;;;18.20;49.10;;;;;;4524127;31;20087;-65
2022/04/01 02:51:36;;;;;;;0.90;0.60;;;18.20;49.10;;;;;;4526160;31;20136;-65
2022/04/01 02:54:04;;;;;;;1.42;0.52;;;18.10;49.10;;;;;;4524012;31;20127;-65
2022/04/01 02:56:32;;;;;;;1.25;0.43;;;18.10;49.10;;;;;;4509291;31;20080;-65
2022/04/01 02:58:59;;;;;;;1.35;0.57;;;18.10;49.00;;;;;;4523502;31;20096;-65
2022/04/01 03:01:25;;;;;;;0.52;0.30;;;18.10;49.10;;;;;;4523608;31;20108;-65
2022/04/01 03:03:51;;;;;;;1.02;0.25;;;18.10;49.10;;;;;;4509664;31;20286;-65
2022/04/01 03:06:18;;;;;;;1.05;0.47;;;18.10;49.00;;;;;;4525175;31;20153;-65
2022/04/01 03:08:45;;;;;;;0.75;0.30;;;18.10;49.00;;;;;;4523886;31;20148;-65
2022/04/01 03:11:11;;;;;;;0.98;0.40;;;18.10;50.00;;;;;;4523481;31;20226;-65
2022/04/01 03:13:37;;;;;;;1.30;0.50;;;18.00;49.00;;;;;;4523447;31;20520;-65
2022/04/01 03:16:04;;;;;;;1.23;0.43;;;18.00;49.00;;;;;;4524766;31;20076;-65
2022/04/01 03:18:29;;;;;;;1.50;0.50;;;18.00;49.00;;;;;;4524437;31;20126;-65
2022/04/01 03:20:55;;;;;;;1.65;0.50;;;18.00;49.00;;;;;;4524686;31;20405;-64
2022/04/01 03:23:21;;;;;;;1.40;0.52;;;18.00;49.00;;;;;;4524727;31;20197;-65
2022/04/01 03:25:47;;;;;;;0.35;0.30;;;18.00;49.10;;;;;;4510621;31;20076;-65
2022/04/01 03:28:13;;;;;;;0.98;0.45;;;18.00;49.00;;;;;;4510284;31;20532;-65
2022/04/01 03:30:39;;;;;;;1.05;0.50;;;18.00;49.00;;;;;;4509976;31;20065;-65
2022/04/01 03:33:05;;;;;;;1.10;0.50;;;17.90;49.00;;;;;;4524559;31;20080;-64
2022/04/01 03:35:32;;;;;;;1.48;0.50;;;17.90;49.00;;;;;;4524469;31;20128;-65
2022/04/01 03:37:59;;;;;;;1.33;0.40;;;17.90;49.10;;;;;;4524498;31;20624;-65
2022/04/01 03:40:29;;;;;;;0.98;0.40;;;18.00;49.00;;;;;;4524297;31;20493;-64
2022/04/01 03:42:55;;;;;;;0.95;0.40;;;17.90;49.00;;;;;;4524122;31;20080;-65
2022/04/01 03:45:22;;;;;;;0.80;0.40;;;17.90;49.00;;;;;;4524117;31;20524;-65
2022/04/01 03:48:00;;;;;;;0.77;0.35;;;17.90;49.10;;;;;;4524042;31;20607;-65
2022/04/01 03:50:32;;;;;;;0.98;0.40;;;17.90;49.00;;;;;;4525455;31;20148;-64
2022/04/01 03:53:04;;;;;;;1.05;0.40;;;17.80;49.00;;;;;;4524385;31;20202;-65
2022/04/01 03:55:32;;;;;;;1.17;0.40;;;17.80;49.00;;;;;;4524293;31;20548;-65
2022/04/01 03:58:05;;;;;;;1.48;0.40;;;17.80;49.00;;;;;;4524161;31;20091;-65
2022/04/01 04:00:32;;;;;;;1.33;0.47;;;17.80;49.00;;;;;;4524465;31;20091;-65
2022/04/01 04:02:59;;;;;;;1.65;0.47;;;17.80;49.00;;;;;;4497028;31;20502;-65
2022/04/01 04:05:27;;;;;;;1.25;0.50;;;17.80;49.10;;;;;;4524076;31;20481;-65
2022/04/01 04:07:55;;;;;;;1.27;0.30;;;17.80;49.10;;;;;;4524086;31;20156;-65
2022/04/01 04:10:21;;;;;;;2.90;0.45;;;17.80;49.10;;;;;;4523984;31;20160;-65
2022/04/01 04:12:49;;;;;;;0.60;0.40;;;17.80;49.10;;;;;;4523845;31;20121;-65
2022/04/01 04:15:15;;;;;;;0.93;0.25;;;17.70;49.00;;;;;;4523623;31;20072;-65
2022/04/01 04:17:45;;;;;;;0.95;0.28;;;17.70;49.10;;;;;;4524013;31;20358;-65
2022/04/01 04:20:41;;;;;;;1.15;0.40;;;17.80;49.10;;;;;;4524233;31;20073;-65
2022/04/01 04:23:16;;;;;;;0.98;0.40;;;17.70;49.00;;;;;;4524232;31;20064;-65
2022/04/01 04:25:59;;;;;;;0.80;0.32;;;17.70;49.10;;;;;;4523859;31;20460;-65
2022/04/01 04:28:31;;;;;;;0.80;0.30;;;17.70;49.10;;;;;;4524132;31;20069;-65
2022/04/01 04:31:02;;;;;;;1.33;0.30;;;17.70;49.10;;;;;;4524140;31;20076;-65
2022/04/01 04:33:30;;;;;;;1.92;0.35;;;17.70;49.10;;;;;;4509775;31;20060;-65
2022/04/01 04:36:05;;;;;;;1.58;0.52;;;17.60;49.10;;;;;;4523712;31;20083;-65
2022/04/01 04:38:39;;;;;;;2.38;0.60;;;17.60;49.10;;;;;;4509221;31;20095;-64
2022/04/01 04:41:10;;;;;;;1.02;0.35;;;17.60;49.10;;;;;;4509667;31;20456;-65
2022/04/01 04:43:45;;;;;;;1.48;0.50;;;17.60;49.10;;;;;;4510009;31;20124;-65
2022/04/01 04:46:13;;;;;;;0.88;0.40;;;17.60;49.00;;;;;;4523894;31;20136;-65
2022/04/01 04:48:41;;;;;;;0.88;0.30;;;17.60;49.10;;;;;;4508900;31;20088;-65
2022/04/01 04:51:09;;;;;;;1.42;0.30;;;17.60;49.10;;;;;;4523661;31;20701;-65
2022/04/01 04:53:38;;;;;;;0.70;0.30;;;17.60;49.10;;;;;;4509291;31;20064;-65
2022/04/01 04:56:05;;;;;;;0.75;0.30;;;17.60;49.10;;;;;;4523256;31;20091;-65
2022/04/01 04:58:39;;;;;;;0.73;0.38;;;17.60;49.10;;;;;;4523489;31;20107;-65
2022/04/01 05:01:13;;;;;;;1.77;0.50;;;17.60;49.10;;;;;;4523806;31;20096;-65
2022/04/01 05:04:01;;;;;;;0.90;0.50;;;17.50;49.10;;;;;;4523530;31;20595;-65
2022/04/01 05:06:32;;;;;;;1.33;0.50;;;17.50;49.00;;;;;;4523742;31;20076;-65
2022/04/01 05:09:09;;;;;;;1.10;0.40;;;17.50;49.10;;;;;;4523260;31;20230;-65
2022/04/01 05:11:56;;;;;;;1.05;0.45;;;17.50;49.10;;;;;;4523823;31;20069;-65
2022/04/01 05:14:32;;;;;;;0.73;0.30;;;17.50;49.10;;;;;;4523205;31;20545;-65
2022/04/01 05:17:04;;;;;;;2.55;0.57;;;17.50;49.10;;;;;;4523491;31;20218;-65
2022/04/01 05:19:36;;;;;;;1.75;0.50;;;17.50;49.10;;;;;;4508636;31;20112;-65
2022/04/01 05:22:05;;;;;;;1.95;0.45;;;17.50;49.10;;;;;;4523643;31;20149;-65
2022/04/01 05:24:52;;;;;;;0.95;0.30;;;17.40;49.10;;;;;;4523243;31;20072;-65
2022/04/01 05:27:25;;;;;;;1.02;0.50;;;17.40;49.00;;;;;;4523605;31;20064;-65
2022/04/01 05:30:18;;;;;;;1.23;0.45;;;17.40;49.10;;;;;;4509506;31;20069;-65
2022/04/01 05:32:58;;;;;;;0.98;0.40;;;17.40;49.10;;;;;;4523443;31;20076;-65
2022/04/01 05:35:35;;;;;;;0.60;0.30;;;17.40;49.10;;;;;;4523538;31;20375;-65
2022/04/01 05:38:02;;;;;;;1.20;0.40;;;17.40;49.10;;;;;;4522779;31;20092;-64
2022/04/01 05:40:29;;;;;;;1.73;0.52;;;17.40;49.20;;;;;;4508989;31;20072;-65
2022/04/01 05:42:56;;;;;;;0.98;0.32;;;17.40;49.10;;;;;;4523063;31;20221;-65
2022/04/01 05:45:25;;;;;;;1.15;0.47;;;17.40;49.10;;;;;;4523195;31;20072;-65
2022/04/01 05:47:53;;;;;;;0.43;0.30;;;17.40;49.10;;;;;;4523267;31;20455;-67
2022/04/01 05:50:20;;;;;;;0.80;0.30;;;17.30;49.10;;;;;;4523160;31;20092;-65
2022/04/01 05:52:47;;;;;;;0.98;0.30;;;17.30;49.20;;;;;;4523395;31;20189;-65
2022/04/01 05:55:21;;;;;;;1.85;0.40;;;17.30;49.20;;;;;;4523317;31;20096;-65
2022/04/01 05:57:47;;;;;;;1.27;0.30;;;17.30;49.20;;;;;;4526132;31;20084;-65
2022/04/01 06:00:13;;;;;;;1.58;0.40;;;17.30;49.20;;;;;;4525943;31;20123;-65
2022/04/01 06:03:01;;;;;;;1.05;0.40;;;17.30;49.20;;;;;;4526031;31;20480;-65
2022/04/01 06:05:35;;;;;;;1.08;0.50;;;17.30;49.20;;;;;;4525782;31;20084;-65
2022/04/01 06:08:29;;;;;;;1.15;0.40;;;17.30;49.20;;;;;;4526035;31;20064;-65
2022/04/01 06:11:04;;;;;;;;;;;17.30;49.10;;;;;;4526401;31;20467;-64
2022/04/01 06:14:02;;;;;;;0.88;0.40;;;17.20;49.10;;;;;;4525824;31;20039;-65
2022/04/01 06:16:32;;;;;;;1.02;0.30;;;17.20;49.10;;;;;;4525619;31;20080;-64
2022/04/01 06:19:15;;;;;;;1.50;0.40;;;17.20;49.10;;;;;;4511265;31;20083;-64
2022/04/01 06:21:50;;;;;;;0.63;0.30;;;17.20;49.10;;;;;;4525758;31;20076;-65
2022/04/01 06:24:48;;;;;;;1.83;0.40;;;17.20;49.20;;;;;;4525994;31;20072;-65
2022/04/01 06:27:23;;;;;;;0.38;0.30;;;17.20;49.10;;;;;;4512387;31;20198;-65
2022/04/01 06:30:05;;;;;;;0.38;0.20;;;17.20;49.10;;;;;;4525491;31;20092;-65
2022/04/01 06:32:56;;;;;;;1.15;0.30;;;17.20;49.10;;;;;;4525894;31;20082;-64
2022/04/01 06:35:38;;;;;;;1.27;0.30;;;17.20;49.10;;;;;;4525529;31;20132;-64
2022/04/01 06:38:07;;;;;;;0.60;0.20;;;17.20;49.20;;;;;;4525755;31;20296;-64
2022/04/01 06:40:38;;;;;;;1.40;0.50;;;17.20;49.20;;;;;;4525787;31;20200;-64
2022/04/01 06:43:05;;;;;;;1.42;0.60;;;17.10;49.10;;;;;;4525705;31;20097;-64
2022/04/01 06:45:31;;;;;;;0.73;0.25;;;17.10;49.10;;;;;;4525391;31;20081;-64
2022/04/01 06:47:57;;;;;;;1.15;0.50;;;17.20;49.20;;;;;;4524952;31;20153;-67
2022/04/01 06:50:23;;;;;;;0.82;0.57;;;17.10;49.10;;;;;;4524935;31;20197;-65
2022/04/01 06:52:49;;;;;;;1.08;0.40;;;17.10;49.10;;;;;;4525062;31;20076;-65
2022/04/01 06:55:15;;;;;;;0.90;0.43;;;17.10;49.10;;;;;;4511077;31;20172;-65
2022/04/01 06:57:42;;;;;;;1.15;0.43;;;17.10;49.10;;;;;;4524965;31;20249;-64
2022/04/01 07:00:12;;;;;;;2.70;0.40;;;17.10;49.10;;;;;;4509375;31;20242;-66
2022/04/01 07:02:42;;;;;;;7.10;0.40;;;17.10;49.10;;;;;;4523786;31;20072;-66
2022/04/01 07:05:09;;;;;;;2.33;0.60;;;17.10;48.60;;;;;;4509864;31;20510;-66
2022/04/01 07:07:35;;;;;;;1.27;0.50;;;17.10;48.10;;;;;;4523802;31;20075;-65
2022/04/01 07:10:03;;;;;;;3.95;0.80;;;17.00;47.50;;;;;;4524035;31;20127;-66
2022/04/01 07:12:29;;;;;;;2.08;0.63;;;17.00;47.10;;;;;;4524113;31;20159;-65
2022/04/01 07:14:55;;;;;;;1.98;0.47;;;16.90;47.40;;;;;;4524297;31;20068;-65
2022/04/01 07:17:21;;;;;;;0.85;0.40;;;16.90;47.70;;;;;;4524498;31;20612;-65
2022/04/01 07:19:47;;;;;;;2.47;0.70;;;16.90;47.90;;;;;;4524540;31;20064;-65
2022/04/01 07:22:13;;;;;;;1.13;0.40;;;16.90;47.90;;;;;;4524900;31;20192;-65
2022/04/01 07:24:39;;;;;;;6.43;0.70;;;17.00;48.00;;;;;;4510474;31;20461;-66
2022/04/01 07:27:05;;;;;;;1.15;0.50;;;17.00;47.90;;;;;;4524687;31;20493;-65
2022/04/01 07:29:31;;;;;;;1.13;0.50;;;17.10;47.90;;;;;;4524985;31;20447;-65
2022/04/01 07:34:43;;;;;;;1.73;0.50;;;17.20;47.80;;;;;;4532955;31;20082;-66
2022/04/01 07:37:11;;;;;;;1.98;0.30;;;17.30;47.70;;;;;;4540536;31;20076;-66
2022/04/01 07:39:38;;;;;;;1.45;0.63;;;17.40;47.80;;;;;;4540632;31;20106;-65
2022/04/01 07:42:05;;;;;;;2.30;0.70;;;17.50;47.20;;;;;;4535604;31;20494;-65
2022/04/01 07:44:31;;;;;;;2.17;0.45;;;17.60;46.90;;;;;;4537647;31;20585;-66
2022/04/01 07:46:57;;;;;;;6.10;0.52;;;17.80;46.60;;;;;;4529662;31;20161;-65
2022/04/01 07:49:24;;;;;;;1.83;0.52;;;17.90;46.30;;;;;;4523811;31;20115;-65
2022/04/01 07:51:50;;;;;;;2.60;0.52;;;18.00;46.00;;;;;;4524049;31;20487;-66
2022/04/01 07:54:16;;;;;;;1.25;0.47;;;18.20;45.80;;;;;;4524493;31;20522;-66
2022/04/01 07:56:43;;;;;;;1.70;0.60;;;18.30;45.60;;;;;;4523980;31;20111;-66
2022/04/01 07:59:10;;;;;;;1.48;0.40;;;18.40;45.50;;;;;;4524167;31;20157;-65
2022/04/01 08:01:37;;;;;;;1.52;0.50;;;18.40;45.40;;;;;;4496827;31;20464;-65
2022/04/01 08:04:03;;;;;;;1.20;0.40;;;18.40;45.40;;;;;;4523800;31;20130;-65
2022/04/01 08:06:33;;;;;;;15.05;0.70;;;18.50;45.40;;;;;;4509554;31;20170;-66
2022/04/01 08:08:59;;;;;;;1.73;0.60;;;18.60;45.40;;;;;;4523845;31;20501;-66
2022/04/01 08:11:25;;;;;;;2.67;0.50;;;18.70;45.50;;;;;;4524211;31;20072;-66
2022/04/01 08:13:55;;;;;;;1.50;0.70;;;18.80;45.60;;;;;;4523767;31;20218;-65
2022/04/01 08:16:22;;;;;;;3.55;0.50;;;18.80;45.60;;;;;;4524228;31;20072;-66
2022/04/01 08:18:48;;;;;;;3.53;0.60;;;18.90;45.50;;;;;;4523131;31;20084;-65
2022/04/01 08:21:15;;;;;;;1.15;0.40;;;19.00;45.50;;;;;;4523946;31;20092;-66
2022/04/01 08:23:42;;;;;;;2.15;0.63;;;19.10;45.40;;;;;;4524233;31;20087;-65
2022/04/01 08:26:08;;;;;;;2.95;0.40;;;19.20;45.20;;;;;;4509052;31;20146;-66
2022/04/01 08:28:35;;;;;;;2.15;0.73;;;19.30;45.10;;;;;;4523815;31;20088;-66
2022/04/01 08:31:03;;;;;;;2.28;0.65;;;19.40;44.90;;;;;;4523870;31;20524;-66
2022/04/01 08:33:29;;;;;;;1.25;0.40;;;19.50;44.80;;;;;;4523524;31;20076;-65
2022/04/01 08:35:55;;;;;;;0.93;0.30;;;19.60;44.70;;;;;;4509414;31;20080;-66
2022/04/01 08:38:21;;;;;;;2.45;0.73;;;19.70;44.50;;;;;;4523446;31;20068;-66
2022/04/01 08:40:48;;;;;;;1.15;0.40;;;19.80;44.40;;;;;;4523801;31;20092;-66
2022/04/01 08:43:44;;;;;;;3.30;0.50;;;19.90;44.20;;;;;;4523361;31;20087;-68
2022/04/01 08:46:10;;;;;;;2.97;0.60;;;20.00;44.10;;;;;;4522972;31;20216;-67
2022/04/01 08:48:37;;;;;;;1.42;0.40;;;20.10;43.90;;;;;;4520619;31;20511;-66
2022/04/01 08:51:03;;;;;;;2.78;0.57;;;20.20;43.80;;;;;;4539733;31;20159;-66
2022/04/01 08:53:33;;;;;;;4.30;0.70;;;20.20;43.60;;;;;;4525871;31;20440;-66
2022/04/01 08:55:59;;;;;;;3.55;0.50;;;20.30;43.60;;;;;;4538069;31;20514;-66
2022/04/01 08:58:25;;;;;;;2.00;0.50;;;20.40;43.50;;;;;;4530746;31;20116;-66
2022/04/01 09:00:52;;;;;;;2.83;0.55;;;20.40;43.40;;;;;;4522305;31;20068;-67
2022/04/01 09:03:21;;;;;;;2.92;0.40;;;20.50;43.40;;;;;;4538037;31;20107;-67
2022/04/01 09:05:52;;;;;;;3.38;0.50;;;20.50;43.40;;;;;;4534546;31;20084;-66
2022/04/01 09:08:25;;;;;;;4.20;0.77;;;20.50;43.40;;;;;;4538076;31;20226;-66
2022/04/01 09:10:58;;;;;;;1.25;0.40;;;20.50;43.50;;;;;;4538094;31;20605;-66
2022/04/01 09:13:28;;;;;;;2.60;0.60;;;20.50;43.50;;;;;;4521901;31;20079;-66
2022/04/01 09:15:54;;;;;;;0.60;0.30;;;20.50;43.50;;;;;;4523474;31;20583;-66
2022/04/01 09:18:45;;;;;;;1.00;0.30;;;20.50;43.60;;;;;;4536850;31;20084;-66
2022/04/01 09:21:13;;;;;;;4.50;0.52;;;20.40;43.70;;;;;;4537567;31;20214;-66
2022/04/01 09:23:44;;;;;;;2.65;0.47;;;20.40;43.70;;;;;;4538897;31;20634;-66
2022/04/01 09:26:10;;;;;;;3.70;0.95;;;20.40;43.70;;;;;;4535334;31;20104;-66
2022/04/01 09:28:41;;;;;;;1.98;0.65;;;20.40;43.70;;;;;;4538821;31;20072;-66
2022/04/01 09:31:10;;;;;;;0.80;0.40;;;20.40;43.80;;;;;;4541158;31;20180;-66
2022/04/01 09:33:42;;;;;;;3.70;0.57;;;20.30;43.70;;;;;;4527233;31;20091;-66
2022/04/01 09:36:13;;;;;;;1.15;0.45;;;20.30;43.90;;;;;;4541953;31;20175;-67
2022/04/01 09:38:50;;;;;;;2.75;0.73;;;20.30;44.00;;;;;;4541395;31;20168;-67
2022/04/01 09:41:19;;;;;;;3.60;0.50;;;20.20;44.00;;;;;;4525553;31;20161;-66
2022/04/01 09:43:45;;;;;;;1.20;0.20;;;20.20;44.30;;;;;;4525621;31;20080;-66
2022/04/01 09:46:26;;;;;;;1.60;0.50;;;20.10;44.30;;;;;;4540431;31;20523;-68
2022/04/01 09:48:57;;;;;;;3.05;0.45;;;20.10;44.30;;;;;;4542272;31;20165;-65
2022/04/01 09:51:33;;;;;;;3.22;0.50;;;20.10;44.30;;;;;;4542234;31;20094;-66
2022/04/01 09:54:03;;;;;;;2.60;0.40;;;20.10;44.30;;;;;;4542307;31;20090;-66
2022/04/01 09:56:39;;;;;;;1.38;0.40;;;20.10;44.30;;;;;;4542330;31;20091;-66
2022/04/01 09:59:05;;;;;;;2.55;0.40;;;20.10;44.20;;;;;;4527749;31;20077;-68
2022/04/01 10:01:34;;;;;;;2.78;0.55;;;20.10;44.20;;;;;;4538916;31;20060;-69
2022/04/01 10:04:00;;;;;;;1.85;0.45;;;20.10;44.10;;;;;;4542082;31;20064;-65
2022/04/01 10:06:28;;;;;;;0.80;0.32;;;20.20;44.10;;;;;;4542060;31;20080;-66
2022/04/01 10:08:56;;;;;;;3.35;0.43;;;20.20;44.00;;;;;;4541993;31;20524;-66
2022/04/01 10:11:23;;;;;;;3.13;0.30;;;20.30;44.00;;;;;;4541935;31;20091;-66
2022/04/01 10:13:50;;;;;;;2.08;0.40;;;20.30;43.90;;;;;;4541714;31;20068;-73
2022/04/01 10:16:19;;;;;;;3.00;0.40;;;20.40;43.70;;;;;;4533378;31;20299;-66
2022/04/01 10:18:47;;;;;;;1.73;0.40;;;20.40;43.50;;;;;;4525447;31;20102;-66
2022/04/01 10:21:19;;;;;;;1.95;0.45;;;20.40;43.50;;;;;;4510796;31;20124;-66
2022/04/01 10:23:54;;;;;;;2.50;0.50;;;20.30;43.50;;;;;;4511294;31;20107;-66
2022/04/01 10:26:22;;;;;;;2.63;0.45;;;20.30;43.50;;;;;;4525947;31;20096;-66
2022/04/01 10:28:51;;;;;;;3.67;0.55;;;20.30;43.60;;;;;;4525611;31;20076;-66
2022/04/01 10:31:19;;;;;;;1.63;0.50;;;20.20;43.70;;;;;;4525508;31;20080;-67
2022/04/01 10:33:45;;;;;;;1.25;0.40;;;20.10;43.70;;;;;;4525489;31;20068;-66
2022/04/01 10:36:31;;;;;;;1.48;0.30;;;20.10;43.90;;;;;;4525499;31;20524;-66
2022/04/01 10:39:08;;;;;;;0.55;0.28;;;20.00;43.90;;;;;;4525292;31;20092;-66
2022/04/01 10:41:35;;;;;;;2.28;0.50;;;20.00;44.00;;;;;;4510404;31;20072;-66
2022/04/01 10:44:02;;;;;;;3.38;0.40;;;20.00;44.20;;;;;;4525664;31;20099;-66
2022/04/01 10:46:28;;;;;;;1.80;0.40;;;19.90;44.10;;;;;;4525170;31;20229;-67
2022/04/01 10:52:10;;;;;;;1.73;0.35;;;19.90;44.20;;;;;;4525380;31;20085;-67
2022/04/01 10:54:38;;;;;;;2.08;0.50;;;19.90;44.20;;;;;;4525283;31;20159;-67
2022/04/01 10:57:08;;;;;;;1.42;0.40;;;19.90;44.20;;;;;;4525187;31;20095;-66
2022/04/01 10:59:47;;;;;;;1.35;0.30;;;19.90;44.20;;;;;;4524918;31;20072;-66
2022/04/01 11:02:21;;;;;;;0.73;0.38;;;19.90;45.20;;;;;;4525195;31;20160;-66
2022/04/01 11:04:47;;;;;;;;;;;19.80;44.30;;;;;;4525835;31;20065;-66
2022/04/01 11:07:22;;;;;;;1.95;0.50;;;19.80;44.30;;;;;;4524901;31;20015;-66
2022/04/01 11:09:49;;;;;;;3.65;0.60;;;19.80;44.40;;;;;;4524874;31;20076;-66
2022/04/01 11:12:14;;;;;;;2.17;0.40;;;19.80;44.40;;;;;;4525195;31;20164;-66
2022/04/01 11:14:59;;;;;;;1.20;0.30;;;19.80;44.40;;;;;;4524656;31;20093;-66
2022/04/01 11:17:34;;;;;;;1.88;0.40;;;19.80;44.40;;;;;;4524804;31;20088;-66
2022/04/01 11:20:10;;;;;;;2.80;0.30;;;19.80;44.50;;;;;;4510183;31;20414;-66
2022/04/01 11:22:52;;;;;;;1.00;0.30;;;19.70;44.50;;;;;;4525013;31;20083;-67
2022/04/01 11:25:31;;;;;;;0.70;0.25;;;19.80;44.50;;;;;;4524735;31;20090;-67
2022/04/01 11:28:06;;;;;;;1.35;0.40;;;19.70;44.50;;;;;;4525106;31;20112;-66
2022/04/01 11:30:34;;;;;;;2.00;0.40;;;19.70;44.50;;;;;;4525050;31;20082;-67
2022/04/01 11:33:07;;;;;;;1.20;0.35;;;19.80;44.50;;;;;;4510076;31;20076;-66
2022/04/01 11:35:36;;;;;;;2.42;0.50;;;19.80;44.50;;;;;;4524905;31;20112;-66
2022/04/01 11:38:04;;;;;;;0.82;0.30;;;19.70;44.50;;;;;;4524326;31;20068;-66
2022/04/01 11:40:32;;;;;;;1.27;0.50;;;19.80;44.50;;;;;;4524323;31;20084;-66
2022/04/01 11:43:04;;;;;;;1.20;0.43;;;19.80;44.60;;;;;;4524557;31;20088;-66
2022/04/01 11:45:35;;;;;;;1.80;0.52;;;19.80;44.60;;;;;;4524732;31;20096;-66
2022/04/01 11:48:22;;;;;;;0.77;0.32;;;19.70;44.60;;;;;;4510718;31;20064;-66
2022/04/01 11:50:54;;;;;;;0.73;0.30;;;19.80;44.60;;;;;;4524744;31;20065;-66
2022/04/01 11:53:27;;;;;;;0.68;0.30;;;19.80;44.50;;;;;;4524089;31;20099;-67
2022/04/01 11:55:54;;;;;;;0.68;0.30;;;19.70;44.50;;;;;;4524382;31;20077;-67
2022/04/01 11:58:23;;;;;;;0.85;0.25;;;19.70;44.60;;;;;;4523934;31;20088;-67
2022/04/01 12:00:49;;;;;;;0.68;0.30;;;19.70;44.60;;;;;;4524324;31;20072;-66
2022/04/01 12:03:18;;;;;;;0.70;0.30;;;19.70;44.60;;;;;;4524151;31;20110;-66
2022/04/01 12:05:45;;;;;;;0.90;0.35;;;19.70;44.60;;;;;;4524165;31;20171;-66
2022/04/01 12:10:58;;;;;;;1.30;0.30;;;19.70;44.60;;;;;;4524198;31;20157;-66
2022/04/01 12:13:26;;;;;;;2.13;0.70;;;19.70;44.60;;;;;;4523966;31;20534;-66
2022/04/01 12:15:53;;;;;;;0.77;0.30;;;19.70;44.50;;;;;;4509809;31;20092;-67
2022/04/01 12:18:23;;;;;;;0.80;0.30;;;19.70;44.50;;;;;;4523406;31;20117;-67
2022/04/01 12:20:51;;;;;;;1.50;0.50;;;19.70;44.50;;;;;;4509954;31;20075;-66
2022/04/01 12:23:19;;;;;;;1.27;0.43;;;19.70;44.50;;;;;;4523914;31;20072;-66
2022/04/01 12:25:49;;;;;;;1.48;0.30;;;19.70;44.50;;;;;;4523879;31;20164;-66
2022/04/01 12:28:18;;;;;;;0.98;0.30;;;19.70;44.50;;;;;;4523762;31;20214;-66
2022/04/01 12:30:49;;;;;;;1.08;0.47;;;19.80;44.50;;;;;;4524142;31;20130;-66
2022/04/01 12:33:18;;;;;;;1.77;0.40;;;19.80;44.50;;;;;;4524111;31;20068;-66
2022/04/01 12:35:49;;;;;;;2.30;0.63;;;19.80;44.50;;;;;;4524018;31;20271;-66
2022/04/01 12:38:16;;;;;;;1.35;0.40;;;19.80;44.50;;;;;;4523417;31;20072;-66
2022/04/01 12:40:45;;;;;;;0.88;0.32;;;19.70;44.40;;;;;;4523848;31;20099;-66
2022/04/01 12:43:39;;;;;;;0.63;0.30;;;19.80;44.40;;;;;;4523747;31;20096;-66
2022/04/01 12:46:18;;;;;;;1.20;0.30;;;19.80;44.40;;;;;;4523988;31;20092;-66
2022/04/01 12:48:51;;;;;;;1.00;0.20;;;19.80;44.40;;;;;;4523488;31;20128;-66
2022/04/01 12:51:26;;;;;;;2.13;0.43;;;19.80;44.40;;;;;;4523883;31;20076;-66
2022/04/01 12:54:02;;;;;;;1.33;0.47;;;19.80;44.30;;;;;;4524021;31;20073;-67
2022/04/01 12:56:34;;;;;;;0.77;0.35;;;19.80;44.30;;;;;;4523548;31;20083;-66
2022/04/01 12:59:06;;;;;;;0.80;0.30;;;19.80;44.30;;;;;;4523895;31;20086;-66
2022/04/01 13:01:33;;;;;;;1.65;0.50;;;19.80;44.30;;;;;;4523677;31;20060;-66
2022/04/01 13:04:00;;;;;;;1.33;0.55;;;19.80;44.30;;;;;;4523518;31;20648;-66
2022/04/01 13:06:27;;;;;;;1.98;0.60;;;19.80;44.30;;;;;;4526471;31;20165;-66
2022/04/01 13:08:58;;;;;;;0.50;0.30;;;19.80;44.30;;;;;;4526858;31;20210;-66
2022/04/01 13:11:43;;;;;;;1.52;0.50;;;19.80;44.30;;;;;;4526794;31;20206;-66
2022/04/01 13:14:23;;;;;;;1.08;0.30;;;19.80;44.30;;;;;;4527122;31;20083;-66